Terminal Aerodrome Forecast
Issued by NWS

Home | Current Version | Previous Version | Text Only | Print | Product List | Glossary On
Versions: 1 2 3 4 5 6 7 8 9 10 11 12 13 14
000
FTAK31 PANC 232328
TAFATK
TAF
PATK 232328Z 2400/2424 01005KT P6SM SCT080
      TEMPO 2402/2404 -SN BKN035
     FM240400 VRB03KT 6SM -SN SCT008 OVC030
     FM240900 02003KT P6SM OVC025=

USA.gov is the U.S. government's official web portal to all federal, state and local government web resources and services.